createdAt,value
2019-04-23T00:05:27.159Z,13.05
2019-04-23T00:10:30.104Z,13.49
2019-04-23T00:12:59.280Z,13.20
2019-04-23T00:15:58.702Z,13.23
2019-04-23T00:18:35.257Z,13.19
2019-04-23T00:21:06.892Z,13.10
2019-04-23T00:23:35.162Z,13.03
2019-04-23T00:26:13.725Z,12.96
2019-04-23T00:28:51.895Z,13.24
2019-04-23T00:31:18.269Z,13.22
2019-04-23T00:33:52.702Z,12.85
2019-04-23T00:36:37.463Z,12.71
2019-04-23T00:38:55.807Z,12.56
2019-04-23T00:41:33.224Z,12.45
2019-04-23T00:44:01.959Z,12.63
2019-04-23T00:46:35.043Z,12.98
2019-04-23T00:49:12.091Z,12.79
2019-04-23T00:51:42.697Z,12.86
2019-04-23T00:54:14.870Z,12.86
2019-04-23T00:56:49.598Z,12.84
2019-04-23T00:59:21.257Z,12.88
2019-04-23T01:04:25.531Z,13.33
2019-04-23T01:07:01.156Z,13.45
2019-04-23T01:09:42.263Z,13.18
2019-04-23T01:12:06.103Z,13.13
2019-04-23T01:14:33.909Z,13.17
2019-04-23T01:17:18.580Z,13.03
2019-04-23T01:19:49.587Z,13.22
2019-04-23T01:22:04.312Z,13.48
2019-04-23T01:24:46.666Z,13.24
2019-04-23T01:30:19.814Z,13.16
2019-04-23T01:32:48.373Z,13.06
2019-04-23T01:35:33.453Z,13.08
2019-04-23T01:37:50.542Z,13.00
2019-04-23T01:40:31.893Z,12.83
2019-04-23T01:43:01.565Z,12.87
2019-04-23T01:45:48.017Z,12.68
2019-04-23T01:48:05.212Z,12.57
2019-04-23T01:50:47.114Z,12.37
2019-04-23T01:55:47.275Z,12.48
2019-04-23T01:58:32.433Z,12.65
2019-04-23T02:00:54.524Z,12.46
2019-04-23T02:03:26.933Z,12.25
2019-04-23T02:08:28.071Z,12.67
2019-04-23T02:11:10.273Z,12.51
2019-04-23T02:13:38.358Z,12.37
2019-04-23T02:16:24.721Z,12.00
2019-04-23T02:18:44.132Z,12.10
2019-04-23T02:21:15.472Z,12.22
2019-04-23T02:24:10.906Z,12.41
2019-04-23T02:26:28.823Z,12.52
2019-04-23T02:29:03.536Z,12.42
2019-04-23T02:36:45.235Z,12.02
2019-04-23T02:39:12.993Z,11.94
2019-04-23T02:41:59.540Z,11.84
2019-04-23T02:47:02.618Z,12.05
2019-04-23T02:49:36.145Z,11.85
2019-04-23T02:51:59.288Z,12.04
2019-04-23T02:57:16.136Z,11.75
2019-04-23T03:00:11.672Z,11.64
2019-04-23T03:05:04.475Z,11.73
2019-04-23T03:09:58.898Z,11.67
2019-04-23T03:12:31.808Z,11.73
2019-04-23T03:15:21.390Z,11.77
2019-04-23T03:17:47.381Z,11.57
2019-04-23T03:20:22.198Z,11.65
2019-04-23T03:25:35.729Z,11.44
2019-04-23T03:27:59.641Z,11.36
2019-04-23T03:34:33.607Z,11.33
2019-04-23T03:38:43.387Z,11.35
2019-04-23T03:51:02.426Z,11.11
2019-04-23T03:53:52.429Z,11.04
2019-04-23T03:56:37.922Z,11.07
2019-04-23T03:58:51.323Z,11.08
2019-04-23T04:01:23.612Z,11.09
2019-04-23T04:06:45.510Z,11.10
2019-04-23T04:09:12.867Z,11.14
2019-04-23T04:11:29.161Z,11.14
2019-04-23T04:16:36.144Z,11.13
2019-04-23T04:21:52.997Z,11.22
2019-04-23T04:24:22.365Z,11.21
2019-04-23T04:26:50.923Z,11.05
2019-04-23T04:29:21.466Z,11.29
2019-04-23T04:31:52.224Z,11.63
2019-04-23T04:37:27.251Z,11.56
2019-04-23T04:39:34.006Z,11.66
2019-04-23T04:42:08.270Z,11.61
2019-04-23T04:54:30.842Z,12.21
2019-04-23T04:57:37.060Z,12.07
2019-04-23T05:05:09.018Z,12.45
2019-04-23T05:12:27.483Z,12.36
2019-04-23T05:15:03.215Z,12.25
2019-04-23T05:18:08.411Z,12.59
2019-04-23T05:20:23.959Z,12.79
2019-04-23T05:22:59.455Z,12.84
2019-04-23T05:25:17.973Z,12.85
2019-04-23T05:28:02.722Z,12.79
2019-04-23T05:30:34.936Z,12.72
2019-04-23T05:33:07.740Z,12.76
2019-04-23T05:36:02.045Z,12.71
2019-04-23T05:40:46.676Z,13.32
2019-04-23T05:43:12.707Z,12.97
2019-04-23T05:45:49.549Z,13.05
2019-04-23T05:48:19.735Z,13.13
2019-04-23T05:50:59.112Z,13.16
2019-04-23T05:53:27.402Z,12.98
2019-04-23T05:58:30.117Z,13.40
2019-04-23T06:01:37.951Z,13.72
2019-04-23T06:03:54.427Z,13.66
2019-04-23T06:06:26.189Z,13.96
2019-04-23T06:08:55.138Z,13.99
2019-04-23T06:11:30.528Z,14.18
2019-04-23T06:16:36.405Z,14.28
2019-04-23T06:19:09.591Z,14.22
2019-04-23T06:21:44.764Z,14.47
2019-04-23T06:24:16.311Z,14.27
2019-04-23T06:29:20.447Z,14.36
2019-04-23T06:34:25.895Z,14.29
2019-04-23T06:36:50.974Z,14.14
2019-04-23T06:39:23.900Z,14.27
2019-04-23T06:41:55.861Z,14.72
2019-04-23T06:44:32.167Z,14.40
2019-04-23T06:47:03.198Z,14.48
2019-04-23T06:49:37.842Z,14.55
2019-04-23T06:52:14.934Z,14.38
2019-04-23T06:54:48.006Z,14.61
2019-04-23T06:57:16.262Z,15.09
2019-04-23T07:00:02.410Z,15.20
2019-04-23T07:02:22.237Z,15.17
2019-04-23T07:05:01.772Z,15.43
2019-04-23T07:09:58.066Z,15.68
2019-04-23T07:12:35.102Z,16.17
2019-04-23T07:15:11.648Z,16.35
2019-04-23T07:17:32.523Z,16.50
2019-04-23T07:20:06.913Z,16.56
2019-04-23T07:22:42.849Z,16.13
2019-04-23T07:25:15.383Z,15.95
2019-04-23T07:27:43.142Z,15.95
2019-04-23T07:30:24.096Z,16.03
2019-04-23T07:35:24.702Z,16.38
2019-04-23T07:38:02.975Z,16.10
2019-04-23T07:40:46.717Z,16.55
2019-04-23T07:46:10.405Z,16.46
2019-04-23T07:48:28.818Z,16.46
2019-04-23T07:51:16.160Z,16.53
2019-04-23T07:53:48.270Z,16.53
2019-04-23T07:56:21.250Z,16.36
2019-04-23T07:58:44.652Z,16.71
2019-04-23T08:01:25.235Z,16.71
2019-04-23T08:03:54.233Z,16.57
2019-04-23T08:06:21.335Z,16.62
2019-04-23T08:09:04.133Z,16.87
2019-04-23T08:14:03.382Z,16.69
2019-04-23T08:19:07.777Z,16.78
2019-04-23T08:21:47.501Z,16.83
2019-04-23T08:24:38.534Z,17.39
2019-04-23T08:27:15.267Z,17.39
2019-04-23T08:29:55.824Z,17.25
2019-04-23T08:32:27.632Z,17.29
2019-04-23T08:34:58.855Z,17.29
2019-04-23T08:37:36.001Z,17.22
2019-04-23T08:42:45.985Z,16.95
2019-04-23T08:45:38.455Z,16.95
2019-04-23T08:50:57.763Z,17.55
2019-04-23T08:53:29.721Z,17.51
2019-04-23T08:58:25.893Z,17.53
2019-04-23T09:03:32.888Z,17.75
2019-04-23T09:08:33.230Z,18.02
2019-04-23T09:11:19.556Z,18.02
2019-04-23T09:13:54.682Z,18.17
2019-04-23T09:16:08.482Z,18.23
2019-04-23T09:19:04.005Z,18.70
2019-04-23T09:21:16.125Z,19.24
2019-04-23T09:26:13.798Z,18.95
2019-04-23T09:32:09.586Z,19.39
2019-04-23T09:34:43.205Z,19.93
2019-04-23T09:37:18.826Z,20.16
2019-04-23T09:40:09.998Z,19.82
2019-04-23T09:45:20.408Z,19.51
2019-04-23T09:50:38.462Z,19.67
2019-04-23T09:53:26.866Z,20.10
2019-04-23T10:03:09.064Z,19.56
2019-04-23T10:05:39.107Z,19.57
2019-04-23T10:08:07.946Z,19.65
2019-04-23T10:10:32.266Z,20.12
2019-04-23T10:13:04.196Z,19.79
2019-04-23T10:15:40.400Z,19.92
2019-04-23T10:18:07.952Z,19.56
2019-04-23T10:20:40.343Z,19.68
2019-04-23T10:23:12.417Z,19.05
2019-04-23T10:25:43.765Z,19.59
2019-04-23T10:28:31.925Z,19.75
2019-04-23T10:31:02.980Z,20.06
2019-04-23T10:33:34.334Z,20.05
2019-04-23T10:36:11.051Z,20.44
2019-04-23T10:38:41.663Z,20.53
2019-04-23T10:41:12.055Z,20.57
2019-04-23T10:43:48.392Z,20.05
2019-04-23T10:46:36.524Z,20.20
2019-04-23T10:52:11.612Z,20.19
2019-04-23T10:57:09.332Z,20.22
2019-04-23T10:59:43.121Z,20.30
2019-04-23T11:02:34.530Z,20.00
2019-04-23T11:09:55.705Z,20.46
2019-04-23T11:15:22.356Z,20.29
2019-04-23T11:20:27.376Z,20.72
2019-04-23T11:22:50.938Z,19.87
2019-04-23T11:27:58.583Z,20.19
2019-04-23T11:30:32.555Z,19.88
2019-04-23T11:33:20.253Z,20.28
2019-04-23T11:35:50.726Z,20.41
2019-04-23T11:38:38.843Z,20.18
2019-04-23T11:40:55.322Z,19.93
2019-04-23T11:43:14.742Z,20.41
2019-04-23T11:46:08.201Z,20.15
2019-04-23T11:48:46.206Z,20.43
2019-04-23T11:53:27.829Z,20.90
2019-04-23T12:03:46.783Z,20.35
2019-04-23T12:06:36.958Z,20.44
2019-04-23T12:09:43.017Z,20.96
2019-04-23T12:12:17.102Z,21.03
2019-04-23T12:14:37.088Z,21.74
2019-04-23T12:25:03.481Z,22.22
2019-04-23T12:27:30.548Z,22.27
2019-04-23T12:29:46.297Z,22.07
2019-04-23T12:32:43.236Z,22.70
2019-04-23T12:35:04.347Z,22.13
2019-04-23T12:37:49.436Z,22.27
2019-04-23T12:40:15.561Z,22.42
2019-04-23T12:50:43.988Z,22.45
2019-04-23T12:52:54.166Z,22.88
2019-04-23T12:55:27.770Z,23.69
2019-04-23T12:57:52.225Z,23.36
2019-04-23T13:02:59.049Z,23.39
2019-04-23T13:05:38.943Z,23.87
2019-04-23T13:08:08.035Z,23.32
2019-04-23T13:10:41.898Z,24.08
2019-04-23T13:18:16.925Z,23.92
2019-04-23T13:20:42.209Z,23.51
2019-04-23T13:23:24.931Z,24.39
2019-04-23T13:33:43.862Z,22.37
2019-04-23T13:36:25.807Z,21.86
2019-04-23T13:44:02.653Z,22.58
2019-04-23T13:46:28.807Z,22.99
2019-04-23T13:48:56.206Z,23.19
2019-04-23T13:51:34.194Z,24.02
2019-04-23T13:54:43.705Z,23.13
2019-04-23T13:56:54.843Z,22.91
2019-04-23T13:59:18.279Z,23.22
2019-04-23T14:04:25.196Z,22.81
2019-04-23T14:07:01.439Z,23.06
2019-04-23T14:09:37.960Z,22.27
2019-04-23T14:11:58.160Z,22.50
2019-04-23T14:14:47.920Z,22.63
2019-04-23T14:17:29.770Z,22.60
2019-04-23T14:19:47.239Z,22.26
2019-04-23T14:22:31.286Z,22.30
2019-04-23T14:25:02.056Z,22.70
2019-04-23T14:27:26.456Z,22.58
2019-04-23T14:30:05.335Z,22.70
2019-04-23T14:37:30.412Z,22.69
2019-04-23T14:40:16.053Z,22.38
2019-04-23T14:43:04.258Z,21.67
2019-04-23T14:47:59.176Z,21.67
2019-04-23T14:50:32.413Z,21.34
2019-04-23T14:55:40.259Z,21.02
2019-04-23T14:58:20.548Z,20.87
2019-04-23T15:00:53.627Z,20.90
2019-04-23T15:03:30.688Z,20.95
2019-04-23T15:06:11.023Z,21.16
2019-04-23T15:08:30.350Z,20.72
2019-04-23T15:11:11.538Z,20.63
2019-04-23T15:13:36.149Z,20.36
2019-04-23T15:16:28.353Z,20.41
2019-04-23T15:18:53.378Z,20.30
2019-04-23T15:24:00.407Z,19.99
2019-04-23T15:27:15.617Z,20.41
2019-04-23T15:27:24.145Z,20.08
2019-04-23T15:28:37.526Z,20.16
2019-04-23T15:31:32.875Z,20.63
2019-04-23T15:34:07.535Z,20.84
2019-04-23T15:39:16.656Z,20.25
2019-04-23T15:41:52.953Z,20.39
2019-04-23T15:46:46.764Z,20.17
2019-04-23T15:49:19.924Z,20.34
2019-04-23T15:54:28.129Z,19.94
2019-04-23T15:56:59.538Z,19.79
2019-04-23T15:59:34.640Z,19.72
2019-04-23T16:01:41.869Z,19.64
2019-04-23T16:04:09.391Z,19.91
2019-04-23T16:06:41.434Z,19.55
2019-04-23T16:09:36.037Z,19.37
2019-04-23T16:12:04.707Z,19.05
2019-04-23T16:14:58.446Z,19.17
2019-04-23T16:20:05.998Z,19.06
2019-04-23T16:22:34.968Z,18.83
2019-04-23T16:25:06.821Z,19.00
2019-04-23T16:27:31.975Z,19.02
2019-04-23T16:30:17.376Z,18.78
2019-04-23T16:32:57.735Z,18.84
2019-04-23T16:38:14.139Z,18.35
2019-04-23T16:40:33.231Z,18.06
2019-04-23T16:43:03.824Z,17.94
2019-04-23T16:45:31.695Z,17.89
2019-04-23T16:48:15.794Z,18.07
2019-04-23T16:50:56.199Z,17.90
2019-04-23T16:53:16.144Z,17.71
2019-04-23T16:55:47.491Z,17.67
2019-04-23T17:01:00.234Z,18.02
2019-04-23T17:03:35.987Z,17.78
2019-04-23T17:06:04.008Z,18.02
2019-04-23T17:08:42.338Z,17.90
2019-04-23T17:11:10.056Z,18.19
2019-04-23T17:13:37.599Z,18.04
2019-04-23T17:21:11.751Z,17.70
2019-04-23T17:24:05.763Z,17.73
2019-04-23T17:31:35.474Z,17.39
2019-04-23T17:34:12.099Z,17.11
2019-04-23T17:39:08.539Z,17.16
2019-04-23T17:42:01.927Z,17.27
2019-04-23T17:44:24.262Z,17.27
2019-04-23T17:46:50.435Z,16.87
2019-04-23T17:49:30.076Z,16.93
2019-04-23T17:51:56.383Z,16.93
2019-04-23T17:54:36.709Z,16.86
2019-04-23T18:00:08.437Z,16.73
2019-04-23T18:05:02.874Z,16.48
2019-04-23T18:12:43.544Z,16.75
2019-04-23T18:15:04.857Z,16.75
2019-04-23T18:17:42.746Z,16.63
2019-04-23T18:20:29.694Z,16.83
2019-04-23T18:23:09.991Z,16.60
2019-04-23T18:25:45.220Z,16.40
2019-04-23T18:28:15.111Z,16.66
2019-04-23T18:31:04.236Z,16.66
2019-04-23T18:36:09.790Z,16.40
2019-04-23T18:38:50.110Z,16.54
2019-04-23T18:41:29.420Z,16.61
2019-04-23T18:43:50.701Z,16.29
2019-04-23T18:46:24.964Z,16.29
2019-04-23T18:48:54.483Z,16.23
2019-04-23T18:51:21.427Z,16.14
2019-04-23T18:53:53.103Z,16.14
2019-04-23T18:56:44.699Z,15.93
2019-04-23T18:59:16.230Z,16.21
2019-04-23T19:01:50.123Z,16.21
2019-04-23T19:04:51.033Z,16.08
2019-04-23T19:07:28.606Z,16.19
2019-04-23T19:13:00.173Z,15.86
2019-04-23T19:15:37.180Z,15.86
2019-04-23T19:25:38.735Z,15.94
2019-04-23T19:28:30.277Z,15.82
2019-04-23T19:31:04.379Z,15.82
2019-04-23T19:33:32.889Z,15.93
2019-04-23T19:38:31.069Z,15.73
2019-04-23T19:43:43.101Z,15.76
2019-04-23T19:46:16.478Z,15.49
2019-04-23T19:48:48.228Z,15.61
2019-04-23T19:51:17.249Z,15.75
2019-04-23T19:56:16.176Z,15.70
2019-04-23T19:58:51.721Z,15.53
2019-04-23T20:03:53.758Z,15.66
2019-04-23T20:06:52.191Z,15.68
2019-04-23T20:09:21.955Z,15.41
2019-04-23T20:11:43.834Z,15.67
2019-04-23T20:14:02.393Z,15.67
2019-04-23T20:17:01.321Z,15.40
2019-04-23T20:19:19.271Z,15.42
2019-04-23T20:21:51.085Z,15.46
2019-04-23T20:24:52.640Z,15.27
2019-04-23T20:27:06.198Z,15.30
2019-04-23T20:29:45.429Z,15.49
2019-04-23T20:34:52.126Z,15.11
2019-04-23T20:37:06.590Z,15.27
2019-04-23T20:44:53.518Z,15.10
2019-04-23T20:47:37.195Z,15.15
2019-04-23T20:49:48.339Z,15.10
2019-04-23T20:52:12.843Z,15.05
2019-04-23T20:55:05.201Z,15.29
2019-04-23T20:57:43.795Z,15.23
2019-04-23T21:10:37.429Z,14.95
2019-04-23T21:23:21.440Z,14.62
2019-04-23T21:39:04.420Z,14.59
2019-04-23T21:41:45.172Z,14.32
2019-04-23T21:54:17.309Z,14.28
2019-04-23T21:56:48.260Z,14.12
2019-04-23T21:59:17.290Z,14.08
2019-04-23T22:01:55.883Z,14.16
2019-04-23T22:04:47.627Z,14.11
2019-04-23T22:06:59.083Z,14.17
2019-04-23T22:19:55.594Z,13.53
2019-04-23T22:22:16.233Z,13.67
2019-04-23T22:24:53.080Z,13.76
2019-04-23T22:27:28.032Z,13.85
2019-04-23T22:30:19.900Z,13.73
2019-04-23T22:32:42.964Z,13.63
2019-04-23T22:35:20.398Z,13.58
2019-04-23T22:37:48.427Z,13.78
2019-04-23T22:40:04.720Z,13.49
2019-04-23T22:43:01.250Z,13.61
2019-04-23T22:47:56.636Z,13.41
2019-04-23T22:50:19.098Z,13.63
2019-04-23T22:52:54.096Z,13.42
2019-04-23T22:55:27.656Z,13.50
2019-04-23T23:00:24.942Z,13.85
2019-04-23T23:03:19.684Z,13.58
2019-04-23T23:08:36.181Z,13.55
2019-04-23T23:13:57.568Z,13.31
2019-04-23T23:16:21.332Z,12.93
2019-04-23T23:18:42.631Z,13.23
2019-04-23T23:21:12.088Z,13.00
2019-04-23T23:23:47.793Z,13.16
2019-04-23T23:26:17.506Z,12.94
2019-04-23T23:28:47.284Z,12.70
2019-04-23T23:31:16.247Z,12.61
2019-04-23T23:34:02.357Z,13.17
2019-04-23T23:36:33.490Z,13.29
2019-04-23T23:39:11.522Z,12.89
2019-04-23T23:44:33.454Z,12.98
2019-04-23T23:46:53.383Z,13.00
2019-04-23T23:49:18.882Z,12.81
2019-04-23T23:54:13.621Z,12.65
2019-04-23T23:57:03.809Z,12.92
2019-04-23T23:59:24.764Z,12.85
